createdAt,value
2024-04-12T00:02:10.181Z,46.38
2024-04-12T00:04:37.978Z,21.17
2024-04-12T00:07:16.613Z,31.13
2024-04-12T00:09:46.900Z,25.85
2024-04-12T00:12:14.750Z,33.75
2024-04-12T00:14:45.992Z,35.15
2024-04-12T00:17:18.327Z,23.90
2024-04-12T00:19:47.522Z,27.45
2024-04-12T00:22:16.077Z,25.63
2024-04-12T00:24:43.660Z,30.73
2024-04-12T00:27:10.992Z,23.33
2024-04-12T00:29:38.742Z,14.20
2024-04-12T00:32:19.788Z,15.75
2024-04-12T00:37:18.129Z,8.70
2024-04-12T00:39:51.453Z,8.77
2024-04-12T00:42:30.011Z,16.67
2024-04-12T00:44:59.831Z,16.55
2024-04-12T00:47:29.638Z,12.75
2024-04-12T00:49:57.746Z,11.52
2024-04-12T00:52:28.958Z,12.07
2024-04-12T00:55:04.895Z,13.48
2024-04-12T00:57:39.895Z,7.50
2024-04-12T01:00:30.028Z,10.73
2024-04-12T01:02:59.654Z,9.82
2024-04-12T01:05:26.606Z,12.73
2024-04-12T01:07:57.894Z,10.25
2024-04-12T01:10:27.105Z,9.20
2024-04-12T01:12:57.165Z,13.02
2024-04-12T01:15:25.994Z,8.05
2024-04-12T01:17:54.004Z,9.75
2024-04-12T01:20:26.512Z,11.65
2024-04-12T01:22:59.645Z,12.23
2024-04-12T01:25:27.450Z,8.05
2024-04-12T01:27:56.980Z,10.32
2024-04-12T01:30:24.082Z,8.57
2024-04-12T01:32:54.123Z,8.57
2024-04-12T01:35:25.536Z,7.65
2024-04-12T01:37:53.454Z,11.60
2024-04-12T01:40:24.166Z,8.23
2024-04-12T01:42:51.872Z,10.15
2024-04-12T01:45:18.698Z,13.30
2024-04-12T01:47:48.049Z,5.40
2024-04-12T01:50:23.948Z,6.43
2024-04-12T01:52:54.037Z,5.85
2024-04-12T01:55:22.233Z,6.95
2024-04-12T01:57:54.048Z,7.57
2024-04-12T02:00:22.309Z,8.45
2024-04-12T02:05:34.871Z,7.57
2024-04-12T02:08:09.777Z,5.35
2024-04-12T02:13:19.032Z,5.35
2024-04-12T02:15:54.293Z,9.50
2024-04-12T02:18:25.474Z,11.25
2024-04-12T02:20:54.599Z,6.72
2024-04-12T02:23:23.076Z,6.82
2024-04-12T02:25:51.289Z,9.35
2024-04-12T02:28:19.588Z,6.68
2024-04-12T02:30:55.916Z,6.55
2024-04-12T02:33:34.455Z,3.60
2024-04-12T02:36:13.801Z,9.60
2024-04-12T02:38:42.830Z,6.80
2024-04-12T02:41:17.175Z,5.20
2024-04-12T02:43:56.653Z,7.93
2024-04-12T02:46:26.493Z,9.25
2024-04-12T02:48:53.809Z,7.72
2024-04-12T02:51:24.244Z,14.57
2024-04-12T02:53:53.008Z,5.30
2024-04-12T02:56:21.731Z,12.00
2024-04-12T02:58:53.229Z,8.23
2024-04-12T03:01:24.930Z,5.15
2024-04-12T03:03:57.816Z,7.30
2024-04-12T03:06:27.450Z,4.53
2024-04-12T03:09:02.187Z,7.00
2024-04-12T03:11:37.654Z,6.80
2024-04-12T03:14:19.448Z,5.20
2024-04-12T03:16:52.840Z,6.28
2024-04-12T03:19:19.825Z,5.57
2024-04-12T03:21:52.860Z,6.57
2024-04-12T03:24:20.276Z,5.32
2024-04-12T03:26:49.256Z,5.25
2024-04-12T03:29:18.534Z,7.72
2024-04-12T03:31:48.714Z,7.68
2024-04-12T03:34:16.157Z,6.50
2024-04-12T03:36:55.052Z,7.47
2024-04-12T03:39:23.785Z,7.18
2024-04-12T03:42:01.057Z,8.40
2024-04-12T03:44:33.039Z,8.55
2024-04-12T03:47:06.098Z,9.93
2024-04-12T03:49:33.505Z,12.75
2024-04-12T03:52:00.417Z,14.68
2024-04-12T03:54:28.342Z,14.63
2024-04-12T03:56:58.620Z,15.88
2024-04-12T03:59:39.555Z,21.13
2024-04-12T04:02:10.350Z,16.58
2024-04-12T04:04:39.069Z,15.90
2024-04-12T04:07:07.355Z,13.90
2024-04-12T04:12:01.224Z,13.02
2024-04-12T04:14:29.302Z,10.65
2024-04-12T04:17:02.712Z,10.20
2024-04-12T04:19:37.228Z,10.93
2024-04-12T04:22:23.385Z,8.38
2024-04-12T04:24:54.178Z,8.02
2024-04-12T04:27:23.311Z,10.50
2024-04-12T04:29:53.858Z,9.57
2024-04-12T04:32:23.590Z,10.98
2024-04-12T04:35:06.668Z,18.10
2024-04-12T04:37:41.418Z,7.93
2024-04-12T04:40:18.855Z,8.25
2024-04-12T04:42:47.552Z,10.05
2024-04-12T04:45:23.749Z,9.73
2024-04-12T04:47:51.143Z,6.35
2024-04-12T04:50:21.209Z,6.82
2024-04-12T04:52:48.649Z,5.28
2024-04-12T04:55:15.895Z,10.00
2024-04-12T04:57:45.819Z,8.82
2024-04-12T05:00:20.750Z,5.50
2024-04-12T05:02:52.229Z,5.45
2024-04-12T05:05:28.659Z,8.13
2024-04-12T05:07:57.320Z,15.15
2024-04-12T05:12:53.476Z,4.60
2024-04-12T05:15:50.500Z,7.40
2024-04-12T05:18:17.991Z,11.23
2024-04-12T05:20:45.615Z,7.30
2024-04-12T05:23:14.189Z,10.10
2024-04-12T05:25:42.020Z,15.93
2024-04-12T05:28:09.561Z,9.68
2024-04-12T05:30:38.484Z,10.50
2024-04-12T05:33:06.133Z,11.45
2024-04-12T05:35:36.204Z,6.80
2024-04-12T05:38:08.958Z,6.82
2024-04-12T05:40:47.557Z,5.65
2024-04-12T05:43:17.778Z,9.50
2024-04-12T05:45:49.004Z,9.38
2024-04-12T05:48:16.424Z,11.75
2024-04-12T05:50:47.989Z,6.95
2024-04-12T05:53:15.479Z,9.73
2024-04-12T05:55:46.424Z,5.50
2024-04-12T05:58:17.585Z,7.63
2024-04-12T06:00:48.748Z,9.10
2024-04-12T06:03:16.742Z,16.88
2024-04-12T06:08:24.608Z,10.00
2024-04-12T06:10:52.174Z,7.20
2024-04-12T06:13:22.607Z,6.47
2024-04-12T06:15:49.801Z,4.97
2024-04-12T06:18:20.437Z,7.55
2024-04-12T06:20:49.630Z,5.95
2024-04-12T06:23:20.045Z,9.68
2024-04-12T06:25:47.384Z,8.40
2024-04-12T06:28:15.095Z,5.13
2024-04-12T06:30:48.136Z,4.55
2024-04-12T06:33:15.795Z,3.80
2024-04-12T06:35:45.793Z,8.70
2024-04-12T06:38:23.702Z,9.48
2024-04-12T06:40:54.800Z,4.20
2024-04-12T06:43:24.780Z,6.03
2024-04-12T06:45:59.291Z,6.55
2024-04-12T06:50:56.111Z,11.02
2024-04-12T06:56:00.715Z,5.65
2024-04-12T06:58:28.250Z,3.97
2024-04-12T07:00:59.050Z,7.72
2024-04-12T07:03:26.309Z,4.32
2024-04-12T07:05:56.622Z,4.82
2024-04-12T07:08:27.132Z,7.90
2024-04-12T07:10:54.767Z,8.77
2024-04-12T07:13:22.999Z,6.65
2024-04-12T07:15:50.798Z,5.72
2024-04-12T07:18:18.871Z,4.07
2024-04-12T07:20:46.676Z,7.55
2024-04-12T07:23:17.068Z,3.38
2024-04-12T07:25:46.878Z,4.93
2024-04-12T07:28:14.874Z,3.10
2024-04-12T07:30:45.752Z,7.32
2024-04-12T07:33:14.158Z,6.47
2024-04-12T07:35:45.980Z,9.13
2024-04-12T07:38:13.466Z,4.18
2024-04-12T07:40:41.759Z,8.88
2024-04-12T07:43:15.615Z,5.30
2024-04-12T07:45:45.155Z,5.10
2024-04-12T07:48:27.661Z,11.40
2024-04-12T07:51:02.034Z,7.57
2024-04-12T07:53:32.145Z,8.38
2024-04-12T07:56:09.458Z,8.48
2024-04-12T07:58:37.742Z,5.35
2024-04-12T08:01:17.992Z,6.57
2024-04-12T08:03:58.598Z,6.68
2024-04-12T08:06:39.265Z,6.00
2024-04-12T08:09:07.547Z,3.80
2024-04-12T08:11:43.254Z,8.68
2024-04-12T08:14:22.475Z,12.70
2024-04-12T08:16:54.351Z,8.02
2024-04-12T08:19:40.122Z,7.53
2024-04-12T08:22:08.866Z,4.88
2024-04-12T08:24:36.319Z,10.40
2024-04-12T08:27:04.167Z,8.57
2024-04-12T08:29:31.038Z,11.07
2024-04-12T08:32:05.842Z,7.35
2024-04-12T08:34:34.642Z,5.05
2024-04-12T08:37:04.487Z,5.40
2024-04-12T08:39:31.467Z,7.47
2024-04-12T08:42:01.440Z,5.68
2024-04-12T08:44:33.427Z,5.82
2024-04-12T08:47:31.561Z,7.82
2024-04-12T08:50:07.747Z,10.70
2024-04-12T08:52:47.723Z,8.10
2024-04-12T08:55:18.378Z,13.50
2024-04-12T08:57:49.123Z,9.82
2024-04-12T09:00:20.359Z,9.13
2024-04-12T09:02:50.585Z,10.48
2024-04-12T09:05:26.080Z,3.35
2024-04-12T09:07:53.881Z,8.27
2024-04-12T09:10:20.811Z,3.45
2024-04-12T09:12:48.530Z,9.90
2024-04-12T09:15:25.387Z,8.88
2024-04-12T09:18:03.056Z,14.98
2024-04-12T09:20:31.813Z,4.72
2024-04-12T09:23:16.101Z,5.47
2024-04-12T09:25:46.131Z,10.23
2024-04-12T09:28:18.180Z,7.85
2024-04-12T09:31:03.548Z,5.68
2024-04-12T09:33:33.259Z,4.50
2024-04-12T09:36:16.447Z,6.55
2024-04-12T09:38:43.422Z,5.38
2024-04-12T09:41:33.433Z,6.13
2024-04-12T09:44:01.391Z,7.18
2024-04-12T09:49:39.368Z,8.77
2024-04-12T09:52:25.020Z,11.35
2024-04-12T09:55:10.754Z,5.15
2024-04-12T09:58:04.404Z,10.55
2024-04-12T10:03:36.682Z,3.83
2024-04-12T10:06:22.179Z,10.85
2024-04-12T10:09:09.093Z,12.38
2024-04-12T10:11:56.161Z,9.90
2024-04-12T10:14:41.830Z,2.55
2024-04-12T10:17:32.039Z,3.53
2024-04-12T10:20:18.634Z,11.73
2024-04-12T10:23:04.702Z,21.77
2024-04-12T10:25:56.128Z,6.47
2024-04-12T10:28:41.683Z,4.47
2024-04-12T10:31:31.162Z,7.80
2024-04-12T10:34:26.580Z,7.65
2024-04-12T10:37:13.907Z,16.30
2024-04-12T10:39:47.280Z,7.07
2024-04-12T10:42:14.839Z,9.02
2024-04-12T10:44:47.999Z,7.10
2024-04-12T10:47:17.478Z,7.30
2024-04-12T10:49:44.603Z,11.00
2024-04-12T10:52:15.368Z,8.20
2024-04-12T10:54:44.919Z,4.63
2024-04-12T10:57:15.309Z,4.85
2024-04-12T10:59:43.823Z,5.35
2024-04-12T11:02:13.642Z,6.38
2024-04-12T11:05:00.823Z,6.68
2024-04-12T11:07:28.980Z,10.73
2024-04-12T11:12:46.939Z,16.02
2024-04-12T11:15:23.402Z,12.60
2024-04-12T11:18:13.436Z,8.15
2024-04-12T11:21:14.640Z,11.73
2024-04-12T11:24:01.017Z,14.40
2024-04-12T11:26:47.177Z,11.52
2024-04-12T11:29:37.664Z,11.10
2024-04-12T11:32:07.520Z,10.90
2024-04-12T11:34:41.391Z,13.13
2024-04-12T11:37:11.100Z,15.73
2024-04-12T11:39:39.649Z,10.18
2024-04-12T11:42:08.115Z,13.30
2024-04-12T11:44:35.978Z,11.20
2024-04-12T11:47:04.822Z,8.65
2024-04-12T11:49:46.954Z,12.85
2024-04-12T11:52:18.097Z,14.27
2024-04-12T11:55:00.799Z,11.35
2024-04-12T11:57:31.512Z,9.85
2024-04-12T12:00:02.214Z,8.52
2024-04-12T12:02:30.246Z,11.27
2024-04-12T12:04:58.054Z,15.57
2024-04-12T12:07:25.268Z,12.25
2024-04-12T12:09:52.106Z,14.98
2024-04-12T12:12:23.596Z,9.98
2024-04-12T12:14:54.033Z,9.88
2024-04-12T12:17:21.530Z,12.30
2024-04-12T12:19:53.070Z,7.88
2024-04-12T12:22:21.511Z,23.33
2024-04-12T12:24:49.317Z,8.27
2024-04-12T12:29:50.084Z,10.48
2024-04-12T12:32:17.049Z,8.15
2024-04-12T12:34:45.273Z,10.70
2024-04-12T12:37:13.319Z,9.98
2024-04-12T12:39:40.718Z,9.07
2024-04-12T12:42:11.158Z,11.23
2024-04-12T12:44:38.411Z,9.15
2024-04-12T12:47:07.286Z,10.32
2024-04-12T12:49:48.765Z,8.05
2024-04-12T12:52:16.195Z,14.57
2024-04-12T12:54:44.691Z,13.52
2024-04-12T12:57:13.571Z,13.30
2024-04-12T12:59:44.818Z,11.88
2024-04-12T13:02:17.004Z,8.23
2024-04-12T13:04:48.500Z,15.73
2024-04-12T13:07:18.696Z,11.00
2024-04-12T13:09:55.762Z,12.32
2024-04-12T13:12:31.197Z,14.00
2024-04-12T13:15:01.943Z,13.82
2024-04-12T13:17:29.153Z,13.60
2024-04-12T13:19:58.759Z,10.18
2024-04-12T13:22:25.755Z,10.80
2024-04-12T13:24:53.076Z,11.32
2024-04-12T13:27:25.485Z,12.95
2024-04-12T13:29:52.549Z,13.00
2024-04-12T13:32:20.769Z,14.30
2024-04-12T13:34:47.857Z,14.27
2024-04-12T13:37:22.112Z,14.55
2024-04-12T13:39:50.022Z,13.60
2024-04-12T13:42:22.116Z,14.43
2024-04-12T13:45:08.101Z,13.27
2024-04-12T13:47:54.305Z,19.48
2024-04-12T13:50:57.053Z,10.50
2024-04-12T13:53:33.919Z,12.48
2024-04-12T13:56:20.136Z,13.90
2024-04-12T13:58:54.997Z,15.63
2024-04-12T14:01:24.233Z,9.82
2024-04-12T14:04:00.016Z,14.35
2024-04-12T14:06:28.975Z,14.98
2024-04-12T14:08:57.085Z,15.30
2024-04-12T14:11:24.086Z,8.95
2024-04-12T14:13:51.775Z,7.93
2024-04-12T14:16:18.889Z,9.25
2024-04-12T14:18:49.583Z,12.82
2024-04-12T14:21:21.972Z,12.55
2024-04-12T14:23:50.893Z,16.75
2024-04-12T14:26:17.740Z,11.48
2024-04-12T14:28:44.806Z,18.60
2024-04-12T14:31:12.142Z,14.63
2024-04-12T14:33:40.448Z,14.73
2024-04-12T14:36:08.261Z,13.05
2024-04-12T14:38:41.599Z,19.83
2024-04-12T14:41:09.183Z,17.35
2024-04-12T14:43:36.400Z,16.52
2024-04-12T14:46:07.849Z,13.95
2024-04-12T14:48:37.571Z,17.17
2024-04-12T14:51:05.570Z,13.98
2024-04-12T14:55:59.817Z,16.38
2024-04-12T14:58:29.323Z,14.68
2024-04-12T15:00:56.837Z,9.00
2024-04-12T15:03:42.961Z,10.98
2024-04-12T15:06:28.311Z,11.40
2024-04-12T15:09:19.261Z,10.45
2024-04-12T15:12:04.692Z,14.48
2024-04-12T15:14:50.556Z,13.40
2024-04-12T15:17:36.663Z,8.48
2024-04-12T15:20:22.186Z,8.57
2024-04-12T15:23:07.573Z,9.98
2024-04-12T15:25:53.092Z,6.28
2024-04-12T15:28:38.662Z,8.57
2024-04-12T15:31:24.785Z,8.82
2024-04-12T15:34:10.541Z,7.03
2024-04-12T15:36:56.498Z,8.35
2024-04-12T15:39:42.269Z,9.20
2024-04-12T15:42:27.614Z,7.40
2024-04-12T15:45:13.435Z,9.90
2024-04-12T15:47:40.804Z,6.32
2024-04-12T15:50:23.072Z,8.63
2024-04-12T15:53:08.215Z,6.50
2024-04-12T15:55:55.769Z,9.95
2024-04-12T15:58:42.701Z,13.95
2024-04-12T16:01:28.463Z,10.48
2024-04-12T16:04:20.896Z,8.85
2024-04-12T16:07:07.094Z,8.85
2024-04-12T16:09:54.840Z,7.03
2024-04-12T16:12:22.228Z,8.60
2024-04-12T16:14:49.206Z,8.98
2024-04-12T16:17:16.575Z,9.88
2024-04-12T16:19:43.540Z,9.63
2024-04-12T16:22:11.460Z,5.88
2024-04-12T16:24:39.095Z,10.88
2024-04-12T16:27:06.999Z,9.13
2024-04-12T16:29:34.236Z,12.02
2024-04-12T16:32:01.174Z,9.82
2024-04-12T16:34:28.070Z,9.68
2024-04-12T16:36:54.941Z,14.25
2024-04-12T16:39:22.105Z,7.72
2024-04-12T16:41:52.237Z,6.80
2024-04-12T16:44:19.104Z,7.00
2024-04-12T16:46:46.082Z,5.40
2024-04-12T16:49:12.967Z,9.32
2024-04-12T16:51:41.119Z,9.20
2024-04-12T16:56:35.772Z,9.65
2024-04-12T16:59:06.125Z,13.45
2024-04-12T17:01:33.545Z,13.02
2024-04-12T17:04:02.028Z,5.88
2024-04-12T17:06:30.269Z,7.28
2024-04-12T17:11:27.484Z,5.63
2024-04-12T17:13:54.365Z,14.95
2024-04-12T17:16:21.947Z,8.05
2024-04-12T17:18:49.439Z,10.00
2024-04-12T17:21:16.800Z,24.95
2024-04-12T17:23:43.989Z,34.90
2024-04-12T17:26:11.847Z,25.45
2024-04-12T17:28:39.745Z,29.23
2024-04-12T17:31:10.100Z,33.78
2024-04-12T17:33:37.111Z,22.52
2024-04-12T17:36:08.067Z,26.33
2024-04-12T17:38:37.476Z,16.70
2024-04-12T17:41:04.591Z,26.33
2024-04-12T17:43:31.443Z,19.50
2024-04-12T17:45:58.645Z,16.88
2024-04-12T17:48:25.780Z,15.48
2024-04-12T17:50:54.646Z,17.45
2024-04-12T17:53:23.428Z,13.55
2024-04-12T17:55:51.015Z,12.05
2024-04-12T17:58:18.136Z,14.55
2024-04-12T18:00:48.066Z,12.02
2024-04-12T18:03:15.367Z,17.13
2024-04-12T18:05:42.537Z,18.85
2024-04-12T18:08:09.504Z,11.88
2024-04-12T18:10:36.334Z,14.70
2024-04-12T18:13:03.189Z,14.05
2024-04-12T18:15:30.039Z,9.20
2024-04-12T18:17:57.132Z,9.43
2024-04-12T18:20:26.191Z,9.45
2024-04-12T18:22:53.995Z,7.13
2024-04-12T18:25:21.248Z,9.32
2024-04-12T18:27:48.078Z,8.90
2024-04-12T18:30:15.412Z,4.75
2024-04-12T18:32:43.941Z,7.53
2024-04-12T18:35:14.089Z,10.15
2024-04-12T18:38:04.454Z,9.32
2024-04-12T18:40:51.763Z,8.88
2024-04-12T18:43:37.452Z,11.38
2024-04-12T18:46:04.564Z,10.73
2024-04-12T18:48:31.549Z,11.75
2024-04-12T18:50:58.434Z,10.68
2024-04-12T18:53:25.851Z,8.38
2024-04-12T18:55:55.367Z,8.48
2024-04-12T18:58:22.290Z,9.88
2024-04-12T19:00:50.641Z,13.52
2024-04-12T19:03:17.696Z,7.15
2024-04-12T19:05:46.555Z,12.55
2024-04-12T19:08:13.900Z,8.55
2024-04-12T19:10:42.914Z,9.77
2024-04-12T19:13:11.407Z,7.80
2024-04-12T19:15:40.174Z,14.30
2024-04-12T19:18:11.041Z,9.27
2024-04-12T19:20:44.790Z,8.88
2024-04-12T19:23:12.671Z,9.32
2024-04-12T19:25:39.593Z,6.55
2024-04-12T19:28:06.721Z,8.30
2024-04-12T19:30:38.001Z,9.82
2024-04-12T19:33:05.358Z,12.57
2024-04-12T19:35:32.409Z,6.05
2024-04-12T19:37:59.310Z,5.63
2024-04-12T19:40:26.212Z,9.15
2024-04-12T19:42:53.495Z,7.38
2024-04-12T19:45:20.513Z,9.70
2024-04-12T19:47:48.126Z,7.10
2024-04-12T19:50:15.233Z,5.65
2024-04-12T19:52:51.011Z,6.65
2024-04-12T19:55:23.303Z,5.25
2024-04-12T19:57:50.090Z,11.02
2024-04-12T20:00:17.231Z,8.98
2024-04-12T20:02:46.103Z,4.38
2024-04-12T20:05:16.244Z,12.13
2024-04-12T20:07:43.091Z,9.55
2024-04-12T20:10:10.189Z,7.38
2024-04-12T20:12:37.606Z,7.18
2024-04-12T20:15:05.557Z,5.35
2024-04-12T20:17:32.653Z,6.25
2024-04-12T20:20:04.227Z,9.55
2024-04-12T20:22:31.018Z,10.68
2024-04-12T20:24:59.718Z,6.93
2024-04-12T20:27:27.461Z,7.78
2024-04-12T20:30:08.069Z,9.75
2024-04-12T20:32:38.497Z,8.82
2024-04-12T20:35:14.629Z,15.68
2024-04-12T20:37:41.549Z,5.70
2024-04-12T20:40:09.468Z,8.10
2024-04-12T20:42:36.802Z,10.38
2024-04-12T20:45:04.587Z,6.20
2024-04-12T20:47:31.946Z,14.10
2024-04-12T20:50:02.751Z,7.28
2024-04-12T20:52:29.684Z,7.47
2024-04-12T20:54:56.938Z,7.88
2024-04-12T20:57:23.898Z,8.20
2024-04-12T20:59:53.036Z,9.95
2024-04-12T21:02:20.097Z,8.32
2024-04-12T21:04:52.546Z,8.73
2024-04-12T21:07:20.037Z,5.10
2024-04-12T21:09:47.102Z,7.65
2024-04-12T21:12:14.066Z,6.40
2024-04-12T21:14:41.754Z,6.82
2024-04-12T21:17:09.861Z,6.05
2024-04-12T21:19:36.708Z,8.93
2024-04-12T21:22:04.190Z,9.00
2024-04-12T21:24:32.656Z,4.95
2024-04-12T21:26:59.558Z,6.20
2024-04-12T21:29:27.429Z,8.52
2024-04-12T21:31:54.306Z,4.93
2024-04-12T21:34:21.254Z,13.27
2024-04-12T21:36:48.296Z,8.55
2024-04-12T21:39:15.155Z,6.10
2024-04-12T21:41:42.372Z,8.30
2024-04-12T21:44:10.030Z,10.25
2024-04-12T21:46:39.244Z,9.00
2024-04-12T21:49:06.155Z,6.28
2024-04-12T21:51:34.842Z,7.00
2024-04-12T21:54:02.080Z,8.02
2024-04-12T21:56:29.054Z,7.82
2024-04-12T21:58:56.329Z,7.43
2024-04-12T22:01:23.265Z,12.95
2024-04-12T22:03:50.661Z,7.40
2024-04-12T22:06:17.712Z,12.32
2024-04-12T22:08:44.745Z,13.38
2024-04-12T22:11:12.300Z,13.98
2024-04-12T22:13:39.574Z,8.32
2024-04-12T22:16:13.689Z,7.00
2024-04-12T22:18:42.359Z,8.50
2024-04-12T22:21:18.060Z,11.98
2024-04-12T22:23:46.762Z,12.95
2024-04-12T22:26:19.102Z,15.60
2024-04-12T22:28:46.921Z,8.98
2024-04-12T22:31:18.504Z,7.93
2024-04-12T22:33:47.163Z,5.35
2024-04-12T22:36:15.154Z,6.70
2024-04-12T22:38:42.227Z,9.88
2024-04-12T22:41:09.402Z,7.55
2024-04-12T22:43:36.542Z,7.63
2024-04-12T22:46:04.149Z,9.00
2024-04-12T22:48:31.662Z,8.25
2024-04-12T22:50:58.773Z,7.90
2024-04-12T22:53:26.493Z,11.90
2024-04-12T22:55:53.378Z,5.38
2024-04-12T22:58:20.354Z,8.18
2024-04-12T23:00:47.497Z,7.80
2024-04-12T23:03:18.260Z,6.75
2024-04-12T23:05:45.520Z,5.88
2024-04-12T23:08:12.304Z,7.40
2024-04-12T23:10:39.123Z,8.52
2024-04-12T23:13:05.881Z,6.70
2024-04-12T23:15:32.765Z,12.93
2024-04-12T23:17:59.706Z,7.13
2024-04-12T23:20:29.521Z,7.95
2024-04-12T23:22:57.366Z,8.32
2024-04-12T23:25:24.228Z,9.10
2024-04-12T23:27:53.425Z,5.72
2024-04-12T23:30:20.257Z,12.75
2024-04-12T23:32:47.210Z,5.00
2024-04-12T23:35:14.251Z,8.68
2024-04-12T23:37:41.487Z,6.18
2024-04-12T23:40:09.335Z,13.88
2024-04-12T23:42:36.490Z,9.50
2024-04-12T23:45:03.835Z,8.23
2024-04-12T23:47:31.500Z,16.15
2024-04-12T23:49:58.528Z,8.82
2024-04-12T23:52:27.539Z,6.63
2024-04-12T23:54:54.935Z,8.45
2024-04-12T23:57:21.740Z,7.13
2024-04-12T23:59:48.721Z,6.68
